Startpagina
METAR-TAF:

METAR-TAF

Vliegvelden :

Payerne, Zwitserland

breedte: 46-49N, lengte: 006-57E, hoogte: 490 m

Actueel weer

Dit bericht is 12 minuten geleden gemaakt, om 11:50 UTC
Wind 2 kt uit variabele richting
Temperatuur 23°C
Vochtigheid 47%
Druk 1022 hPa
Zicht 10 km of meer

METAR: LSMP 041150Z AUTO VRB02KT 9999NDV NCD 23/11 Q1022 RMK

Tijdstip: 14:02 (12:02 UTC)


TAF: ontbreekt

Waarnemingen en weersverwachtingen van meer dan 4000 vliegvelden (METAR en TAF).

De beschikbare stations zijn de gele en rode punten op de kaart.

Ga met uw muis naar het station om de naam te zien.

Klik dan om waarnemingen en weersverwachtingen te zien.

kaart wijzigen: klik op de groene knoppen met een zwart kruis om in te zoomen, op de groene knop met een streepje om uit te zoomen of op de groene pijlen voor aangrenzende kaarten.


METAR-TAF: